createdAt,value
2017-11-05T00:00:38.831Z,100231.65
2017-11-05T00:03:05.043Z,100229.41
2017-11-05T00:05:31.276Z,100230.73
2017-11-05T00:07:57.470Z,100232.00
2017-11-05T00:10:23.668Z,100234.61
2017-11-05T00:12:49.914Z,100234.63
2017-11-05T00:15:16.337Z,100234.63
2017-11-05T00:17:42.525Z,100230.69
2017-11-05T00:20:09.021Z,100225.48
2017-11-05T00:22:35.215Z,100228.50
2017-11-05T00:25:01.768Z,100227.66
2017-11-05T00:27:28.029Z,100230.28
2017-11-05T00:29:54.227Z,100241.26
2017-11-05T00:32:20.531Z,100234.22
2017-11-05T00:34:46.806Z,100237.72
2017-11-05T00:37:13.006Z,100231.64
2017-11-05T00:39:39.196Z,100245.59
2017-11-05T00:42:05.834Z,100236.84
2017-11-05T00:44:32.274Z,100236.89
2017-11-05T00:46:58.459Z,100238.64
2017-11-05T00:49:24.795Z,100240.00
2017-11-05T00:51:51.012Z,100243.45
2017-11-05T00:54:17.456Z,100237.72
2017-11-05T00:56:43.702Z,100235.62
2017-11-05T00:59:09.904Z,100236.89
2017-11-05T01:01:36.084Z,100238.16
2017-11-05T01:04:02.333Z,100242.14
2017-11-05T01:06:28.537Z,100239.52
2017-11-05T01:08:54.738Z,100243.49
2017-11-05T01:11:20.989Z,100241.70
2017-11-05T01:13:47.421Z,100246.07
2017-11-05T01:16:13.614Z,100245.16
2017-11-05T01:18:39.886Z,100248.17
2017-11-05T01:21:06.089Z,100252.58
2017-11-05T01:23:32.311Z,100265.70
2017-11-05T01:25:58.955Z,100267.45
2017-11-05T01:28:25.152Z,100272.31
2017-11-05T01:30:51.358Z,100274.06
2017-11-05T01:33:18.030Z,100278.44
2017-11-05T01:35:44.318Z,100285.82
2017-11-05T01:38:10.749Z,100282.72
2017-11-05T01:40:37.090Z,100287.48
2017-11-05T01:43:03.531Z,100282.72
2017-11-05T01:45:29.743Z,100277.86
2017-11-05T01:47:56.002Z,100282.75
2017-11-05T01:50:22.194Z,100286.70
2017-11-05T01:52:48.405Z,100285.82
2017-11-05T01:55:14.761Z,100280.57
2017-11-05T01:57:41.200Z,100280.22
2017-11-05T02:00:07.412Z,100290.67
2017-11-05T02:02:33.771Z,100294.61
2017-11-05T02:05:00.208Z,100302.05
2017-11-05T02:07:26.666Z,100309.04
2017-11-05T02:09:52.937Z,100301.17
2017-11-05T02:12:19.221Z,100300.78
2017-11-05T02:14:45.412Z,100304.75
2017-11-05T02:17:11.910Z,100303.84
2017-11-05T02:19:38.112Z,100302.13
2017-11-05T02:22:04.405Z,100308.25
2017-11-05T02:24:30.673Z,100312.23
2017-11-05T02:26:56.865Z,100304.36
2017-11-05T02:29:23.301Z,100311.40
2017-11-05T02:31:50.243Z,100313.98
2017-11-05T02:34:16.469Z,100309.70
2017-11-05T02:36:42.957Z,100310.56
2017-11-05T02:39:09.489Z,100306.19
2017-11-05T02:41:35.693Z,100308.39
2017-11-05T02:44:01.901Z,100314.11
2017-11-05T02:46:28.169Z,100314.50
2017-11-05T02:48:54.458Z,100324.03
2017-11-05T02:51:20.918Z,100328.84
2017-11-05T02:53:47.401Z,100326.27
2017-11-05T02:56:13.605Z,100321.50
2017-11-05T02:58:39.837Z,100333.30
2017-11-05T03:01:06.188Z,100327.17
2017-11-05T03:03:32.390Z,100333.83
2017-11-05T03:05:58.615Z,100333.48
2017-11-05T03:08:24.953Z,100329.50
2017-11-05T03:10:51.208Z,100330.85
2017-11-05T03:13:17.409Z,100323.90
2017-11-05T03:15:44.086Z,100326.57
2017-11-05T03:18:10.303Z,100330.50
2017-11-05T03:20:36.514Z,100327.00
2017-11-05T03:23:02.865Z,100330.94
2017-11-05T03:25:29.081Z,100325.30
2017-11-05T03:27:55.300Z,100321.41
2017-11-05T03:30:21.644Z,100325.82
2017-11-05T03:32:47.857Z,100319.66
2017-11-05T03:35:14.153Z,100317.03
2017-11-05T03:37:40.415Z,100319.17
2017-11-05T03:40:06.748Z,100323.55
2017-11-05T03:42:33.220Z,100327.00
2017-11-05T03:44:59.901Z,100323.98
2017-11-05T03:47:26.360Z,100327.53
2017-11-05T03:49:52.571Z,100328.00
2017-11-05T03:52:19.194Z,100325.37
2017-11-05T03:54:45.529Z,100321.84
2017-11-05T03:57:11.737Z,100322.36
2017-11-05T03:59:38.018Z,100326.73
2017-11-05T04:02:04.468Z,100335.13
2017-11-05T04:04:30.674Z,100334.65
2017-11-05T04:06:57.057Z,100344.70
2017-11-05T04:09:23.284Z,100345.13
2017-11-05T04:11:49.509Z,100344.73
2017-11-05T04:14:16.144Z,100348.24
2017-11-05T04:16:42.594Z,100353.08
2017-11-05T04:19:08.804Z,100350.50
2017-11-05T04:21:35.063Z,100336.96
2017-11-05T04:24:01.248Z,100339.98
2017-11-05T04:26:27.433Z,100338.27
2017-11-05T04:28:54.025Z,100337.39
2017-11-05T04:31:20.221Z,100331.71
2017-11-05T04:33:46.449Z,100335.73
2017-11-05T04:36:12.943Z,100332.32
2017-11-05T04:38:39.384Z,100340.62
2017-11-05T04:41:05.583Z,100337.61
2017-11-05T04:43:32.236Z,100346.39
2017-11-05T04:45:58.538Z,100339.39
2017-11-05T04:48:24.763Z,100351.58
2017-11-05T04:50:51.242Z,100358.55
2017-11-05T04:53:17.664Z,100354.52
2017-11-05T04:55:44.110Z,100351.03
2017-11-05T04:58:10.428Z,100350.62
2017-11-05T05:00:36.653Z,100352.42
2017-11-05T05:03:03.098Z,100358.55
2017-11-05T05:05:29.658Z,100354.21
2017-11-05T05:07:55.898Z,100354.25
2017-11-05T05:10:22.102Z,100352.02
2017-11-05T05:12:48.955Z,100357.70
2017-11-05T05:15:15.175Z,100364.27
2017-11-05T05:17:41.388Z,100366.05
2017-11-05T05:20:07.965Z,100366.45
2017-11-05T05:22:34.410Z,100363.31
2017-11-05T05:25:00.622Z,100358.98
2017-11-05T05:27:26.871Z,100359.37
2017-11-05T05:29:53.101Z,100359.30
2017-11-05T05:32:19.305Z,100359.73
2017-11-05T05:34:45.554Z,100348.31
2017-11-05T05:37:11.994Z,100348.28
2017-11-05T05:39:38.219Z,100345.70
2017-11-05T05:42:04.427Z,100340.02
2017-11-05T05:44:31.112Z,100341.38
2017-11-05T05:46:57.313Z,100341.81
2017-11-05T05:49:23.525Z,100357.54
2017-11-05T05:51:49.872Z,100357.98
2017-11-05T05:54:16.113Z,100366.25
2017-11-05T05:56:42.313Z,100365.02
2017-11-05T05:59:08.666Z,100361.08
2017-11-05T06:01:34.871Z,100366.72
2017-11-05T06:04:01.077Z,100370.69
2017-11-05T06:06:27.345Z,100370.26
2017-11-05T06:08:53.568Z,100366.37
2017-11-05T06:11:19.761Z,100372.84
2017-11-05T06:13:46.114Z,100380.31
2017-11-05T06:16:12.553Z,100379.48
2017-11-05T06:18:38.760Z,100381.30
2017-11-05T06:21:05.130Z,100382.63
2017-11-05T06:23:31.334Z,100381.27
2017-11-05T06:25:57.563Z,100384.33
2017-11-05T06:28:24.079Z,100397.44
2017-11-05T06:30:50.533Z,100393.06
2017-11-05T06:33:16.765Z,100399.23
2017-11-05T06:35:43.114Z,100418.09
2017-11-05T06:38:09.656Z,100427.72
2017-11-05T06:40:35.860Z,100427.36
2017-11-05T06:43:02.197Z,100427.48
2017-11-05T06:45:28.408Z,100431.25
2017-11-05T06:47:54.600Z,100425.09
2017-11-05T06:50:21.467Z,100428.67
2017-11-05T06:52:47.654Z,100426.48
2017-11-05T06:55:14.150Z,100438.68
2017-11-05T06:57:40.406Z,100449.64
2017-11-05T07:00:06.634Z,100451.31
2017-11-05T07:02:32.845Z,100450.36
2017-11-05T07:04:59.513Z,100454.69
2017-11-05T07:07:25.732Z,100457.28
2017-11-05T07:09:52.180Z,100458.11
2017-11-05T07:12:18.463Z,100467.69
2017-11-05T07:14:44.669Z,100466.38
2017-11-05T07:17:10.885Z,100472.02
2017-11-05T07:19:37.755Z,100470.27
2017-11-05T07:22:04.288Z,100473.41
2017-11-05T07:24:30.729Z,100474.68
2017-11-05T07:26:57.199Z,100474.60
2017-11-05T07:29:23.699Z,100480.84
2017-11-05T07:31:50.065Z,100485.13
2017-11-05T07:34:16.503Z,100486.45
2017-11-05T07:36:42.704Z,100485.58
2017-11-05T07:39:09.077Z,100492.56
2017-11-05T07:41:35.520Z,100490.38
2017-11-05T07:44:01.728Z,100497.81
2017-11-05T07:46:28.073Z,100497.81
2017-11-05T07:48:54.288Z,100492.59
2017-11-05T07:51:20.493Z,100502.25
2017-11-05T07:53:46.755Z,100500.43
2017-11-05T07:56:12.945Z,100505.64
2017-11-05T07:58:39.153Z,100507.47
2017-11-05T08:01:06.038Z,100497.84
2017-11-05T08:03:32.252Z,100502.70
2017-11-05T08:05:58.445Z,100500.07
2017-11-05T08:08:24.670Z,100505.72
2017-11-05T08:10:50.921Z,100510.12
2017-11-05T08:13:17.146Z,100509.61
2017-11-05T08:15:43.421Z,100509.17
2017-11-05T08:18:10.097Z,100503.92
2017-11-05T08:20:36.299Z,100507.42
2017-11-05T08:23:02.583Z,100508.73
2017-11-05T08:25:29.157Z,100506.11
2017-11-05T08:27:55.601Z,100510.05
2017-11-05T08:30:21.777Z,100514.86
2017-11-05T08:32:48.040Z,100521.41
2017-11-05T08:35:14.477Z,100527.50
2017-11-05T08:37:40.649Z,100517.00
2017-11-05T08:40:07.324Z,100527.89
2017-11-05T08:42:33.774Z,100539.30
2017-11-05T08:44:59.974Z,100546.33
2017-11-05T08:47:26.541Z,100554.12
2017-11-05T08:49:52.722Z,100554.48
2017-11-05T08:52:18.900Z,100551.90
2017-11-05T08:54:45.158Z,100553.20
2017-11-05T08:57:11.353Z,100568.91
2017-11-05T08:59:37.786Z,100559.73
2017-11-05T09:02:04.229Z,100560.60
2017-11-05T09:04:30.431Z,100557.98
2017-11-05T09:06:56.617Z,100561.00
2017-11-05T09:09:22.964Z,100561.84
2017-11-05T09:11:49.171Z,100567.45
2017-11-05T09:14:15.480Z,100567.48
2017-11-05T09:16:41.712Z,100574.44
2017-11-05T09:19:07.918Z,100569.59
2017-11-05T09:21:34.361Z,100574.84
2017-11-05T09:24:00.688Z,100575.23
2017-11-05T09:26:26.913Z,100571.23
2017-11-05T09:28:53.349Z,100563.72
2017-11-05T09:31:19.725Z,100565.43
2017-11-05T09:33:45.931Z,100568.49
2017-11-05T09:36:12.124Z,100571.92
2017-11-05T09:38:38.649Z,100571.84
2017-11-05T09:41:04.838Z,100573.11
2017-11-05T09:43:31.028Z,100572.64
2017-11-05T09:45:57.454Z,100569.62
2017-11-05T09:48:23.657Z,100570.48
2017-11-05T09:50:49.859Z,100570.89
2017-11-05T09:53:16.343Z,100571.36
2017-11-05T09:55:42.553Z,100575.30
2017-11-05T09:58:08.749Z,100574.90
2017-11-05T10:00:35.413Z,100571.44
2017-11-05T10:03:01.647Z,100579.27
2017-11-05T10:05:28.789Z,100577.45
2017-11-05T10:07:55.424Z,100579.63
2017-11-05T10:10:21.873Z,100579.31
2017-11-05T10:12:48.289Z,100591.19
2017-11-05T10:15:15.025Z,100581.53
2017-11-05T10:17:41.217Z,100576.29
2017-11-05T10:20:07.429Z,100583.84
2017-11-05T10:22:33.760Z,100582.13
2017-11-05T10:24:59.950Z,100579.02
2017-11-05T10:27:26.129Z,100578.08
2017-11-05T10:29:52.457Z,100580.66
2017-11-05T10:32:18.895Z,100582.01
2017-11-05T10:34:45.109Z,100579.34
2017-11-05T10:37:11.877Z,100574.58
2017-11-05T10:39:38.056Z,100577.13
2017-11-05T10:42:04.476Z,100578.72
2017-11-05T10:44:30.703Z,100581.27
2017-11-05T10:46:57.180Z,100593.44
2017-11-05T10:49:23.450Z,100594.23
2017-11-05T10:51:50.023Z,100592.89
2017-11-05T10:54:16.454Z,100596.38
2017-11-05T10:56:42.647Z,100592.88
2017-11-05T10:59:09.285Z,100595.03
2017-11-05T11:01:35.469Z,100595.79
2017-11-05T11:04:01.756Z,100598.81
2017-11-05T11:06:28.400Z,100607.16
2017-11-05T11:08:54.849Z,100604.53
2017-11-05T11:11:21.296Z,100607.59
2017-11-05T11:13:47.585Z,100611.97
2017-11-05T11:16:14.020Z,100611.13
2017-11-05T11:18:40.220Z,100620.75
2017-11-05T11:21:06.890Z,100621.27
2017-11-05T11:23:33.324Z,100623.45
2017-11-05T11:25:59.550Z,100623.47
2017-11-05T11:28:25.896Z,100634.03
2017-11-05T11:30:52.329Z,100623.02
2017-11-05T11:33:18.762Z,100634.31
2017-11-05T11:35:44.988Z,100638.66
2017-11-05T11:38:11.200Z,100639.09
2017-11-05T11:40:37.473Z,100637.73
2017-11-05T11:43:03.650Z,100643.02
2017-11-05T11:45:29.906Z,100643.42
2017-11-05T11:47:56.237Z,100643.87
2017-11-05T11:50:22.511Z,100645.65
2017-11-05T11:52:48.795Z,100644.81
2017-11-05T11:55:15.154Z,100638.69
2017-11-05T11:57:41.426Z,100640.04
2017-11-05T12:00:07.762Z,100648.79
2017-11-05T12:02:34.054Z,100649.55
2017-11-05T12:05:00.417Z,100647.73
2017-11-05T12:07:26.683Z,100651.63
2017-11-05T12:09:53.380Z,100654.17
2017-11-05T12:12:19.646Z,100649.32
2017-11-05T12:14:45.917Z,100649.28
2017-11-05T12:17:12.310Z,100647.86
2017-11-05T12:19:38.554Z,100652.63
2017-11-05T12:22:04.810Z,100650.84
2017-11-05T12:24:31.135Z,100645.99
2017-11-05T12:26:57.625Z,100645.44
2017-11-05T12:29:23.857Z,100647.15
2017-11-05T12:31:50.514Z,100648.02
2017-11-05T12:34:16.813Z,100652.40
2017-11-05T12:36:43.074Z,100657.21
2017-11-05T12:39:09.416Z,100666.04
2017-11-05T12:41:35.946Z,100667.83
2017-11-05T12:44:02.200Z,100656.45
2017-11-05T12:46:28.583Z,100664.37
2017-11-05T12:48:54.867Z,100673.12
2017-11-05T12:51:21.112Z,100670.13
2017-11-05T12:53:47.441Z,100680.16
2017-11-05T12:56:13.739Z,100683.66
2017-11-05T12:58:40.016Z,100688.91
2017-11-05T13:01:06.333Z,100692.02
2017-11-05T13:03:32.739Z,100685.52
2017-11-05T13:05:59.023Z,100684.69
2017-11-05T13:08:25.362Z,100689.97
2017-11-05T13:10:51.633Z,100696.50
2017-11-05T13:13:17.896Z,100694.67
2017-11-05T13:15:44.328Z,100699.41
2017-11-05T13:18:10.633Z,100700.21
2017-11-05T13:20:36.893Z,100695.76
2017-11-05T13:23:03.295Z,100698.34
2017-11-05T13:25:29.543Z,100698.75
2017-11-05T13:27:55.817Z,100700.97
2017-11-05T13:30:22.234Z,100712.39
2017-11-05T13:32:48.542Z,100710.71
2017-11-05T13:35:14.808Z,100712.97
2017-11-05T13:37:41.472Z,100710.34
2017-11-05T13:40:07.728Z,100709.52
2017-11-05T13:42:34.008Z,100712.17
2017-11-05T13:45:00.401Z,100713.56
2017-11-05T13:47:26.671Z,100712.66
2017-11-05T13:49:52.948Z,100716.62
2017-11-05T13:52:19.341Z,100723.30
2017-11-05T13:54:45.876Z,100730.88
2017-11-05T13:57:12.122Z,100740.65
2017-11-05T13:59:38.917Z,100752.53
2017-11-05T14:02:05.189Z,100752.56
2017-11-05T14:04:31.524Z,100753.91
2017-11-05T14:06:57.909Z,100763.13
2017-11-05T14:09:24.189Z,100762.23
2017-11-05T14:11:50.464Z,100760.88
2017-11-05T14:14:16.783Z,100768.28
2017-11-05T14:16:43.037Z,100762.55
2017-11-05T14:19:09.288Z,100772.18
2017-11-05T14:21:36.057Z,100765.66
2017-11-05T14:24:02.316Z,100770.50
2017-11-05T14:26:28.620Z,100775.81
2017-11-05T14:28:55.024Z,100784.63
2017-11-05T14:31:21.279Z,100784.27
2017-11-05T14:33:47.553Z,100784.30
2017-11-05T14:36:14.175Z,100781.30
2017-11-05T14:38:40.451Z,100789.61
2017-11-05T14:41:06.776Z,100788.73
2017-11-05T14:43:33.428Z,100789.61
2017-11-05T14:45:59.706Z,100793.59
2017-11-05T14:48:25.955Z,100794.52
2017-11-05T14:50:52.986Z,100802.43
2017-11-05T14:53:19.340Z,100808.66
2017-11-05T14:55:45.586Z,100816.12
2017-11-05T14:58:11.918Z,100815.27
2017-11-05T15:00:38.174Z,100809.72
2017-11-05T15:03:04.442Z,100817.06
2017-11-05T15:05:31.066Z,100812.66
2017-11-05T15:07:57.393Z,100811.78
2017-11-05T15:10:23.845Z,100805.66
2017-11-05T15:12:50.607Z,100806.94
2017-11-05T15:15:16.857Z,100808.75
2017-11-05T15:17:43.140Z,100816.69
2017-11-05T15:20:09.485Z,100812.84
2017-11-05T15:22:35.821Z,100818.12
2017-11-05T15:25:02.093Z,100824.69
2017-11-05T15:27:28.461Z,100830.77
2017-11-05T15:29:54.729Z,100828.66
2017-11-05T15:32:20.996Z,100830.80
2017-11-05T15:34:47.375Z,100838.70
2017-11-05T15:37:13.655Z,100840.92
2017-11-05T15:39:40.010Z,100841.39
2017-11-05T15:42:06.509Z,100846.64
2017-11-05T15:44:33.077Z,100854.91
2017-11-05T15:46:59.357Z,100859.28
2017-11-05T15:49:25.782Z,100863.66
2017-11-05T15:51:52.137Z,100868.98
2017-11-05T15:54:18.733Z,100871.55
2017-11-05T15:56:45.660Z,100875.05
2017-11-05T15:59:11.941Z,100887.32
2017-11-05T16:01:38.252Z,100896.53
2017-11-05T16:04:04.621Z,100900.94
2017-11-05T16:06:30.893Z,100909.67
2017-11-05T16:08:57.173Z,100917.98
2017-11-05T16:11:23.561Z,100918.86
2017-11-05T16:13:50.059Z,100923.23
2017-11-05T16:16:16.329Z,100932.34
2017-11-05T16:18:42.726Z,100934.53
2017-11-05T16:21:08.985Z,100941.09
2017-11-05T16:23:35.245Z,100939.84
2017-11-05T16:26:01.603Z,100945.08
2017-11-05T16:28:27.860Z,100949.02
2017-11-05T16:30:54.127Z,100952.98
2017-11-05T16:33:20.443Z,100960.84
2017-11-05T16:35:46.734Z,100967.00
2017-11-05T16:38:13.025Z,100978.39
2017-11-05T16:40:40.185Z,100987.19
2017-11-05T16:43:06.486Z,100993.74
2017-11-05T16:45:32.740Z,100997.70
2017-11-05T16:47:59.409Z,101006.86
2017-11-05T16:50:25.640Z,101008.14
2017-11-05T16:52:51.885Z,101019.91
2017-11-05T16:55:18.237Z,101019.92
2017-11-05T16:57:44.548Z,101017.35
2017-11-05T17:00:10.816Z,101015.59
2017-11-05T17:02:37.150Z,101020.44
2017-11-05T17:05:03.405Z,101020.44
2017-11-05T17:07:29.764Z,101016.94
2017-11-05T17:09:56.113Z,101022.63
2017-11-05T17:12:22.481Z,101026.55
2017-11-05T17:14:48.721Z,101027.86
2017-11-05T17:17:21.208Z,101022.21
2017-11-05T17:19:47.457Z,101024.86
2017-11-05T17:22:13.703Z,101019.17
2017-11-05T17:24:40.492Z,101025.78
2017-11-05T17:27:06.769Z,101028.88
2017-11-05T17:29:33.048Z,101040.23
2017-11-05T17:31:59.738Z,101030.59
2017-11-05T17:34:26.004Z,101027.97
2017-11-05T17:36:52.275Z,101038.92
2017-11-05T17:39:19.076Z,101043.33
2017-11-05T17:41:45.349Z,101043.34
2017-11-05T17:44:11.856Z,101052.96
2017-11-05T17:46:38.501Z,101059.98
2017-11-05T17:49:05.072Z,101060.83
2017-11-05T17:51:31.317Z,101067.41
2017-11-05T17:53:57.708Z,101071.80
2017-11-05T17:56:23.982Z,101069.17
2017-11-05T17:58:50.269Z,101069.17
2017-11-05T18:01:16.594Z,101064.81
2017-11-05T18:03:42.864Z,101068.75
2017-11-05T18:06:09.111Z,101076.17
2017-11-05T18:08:35.409Z,101079.67
2017-11-05T18:11:01.778Z,101078.44
2017-11-05T18:13:28.054Z,101077.09
2017-11-05T18:15:54.799Z,101077.13
2017-11-05T18:18:21.065Z,101081.92
2017-11-05T18:20:47.617Z,101088.48
2017-11-05T18:23:14.022Z,101086.72
2017-11-05T18:25:40.268Z,101095.48
2017-11-05T18:28:06.546Z,101100.28
2017-11-05T18:30:32.927Z,101109.00
2017-11-05T18:32:59.437Z,101104.66
2017-11-05T18:35:25.713Z,101106.84
2017-11-05T18:37:52.041Z,101110.34
2017-11-05T18:40:18.322Z,101120.84
2017-11-05T18:42:44.567Z,101124.37
2017-11-05T18:45:10.916Z,101123.51
2017-11-05T18:47:37.175Z,101122.64
2017-11-05T18:50:03.420Z,101122.20
2017-11-05T18:52:29.815Z,101123.97
2017-11-05T18:54:56.087Z,101125.72
2017-11-05T18:57:22.354Z,101125.31
2017-11-05T18:59:48.928Z,101138.40
2017-11-05T19:02:15.198Z,101131.81
2017-11-05T19:04:41.447Z,101135.75
2017-11-05T19:07:07.858Z,101142.80
2017-11-05T19:09:34.372Z,101131.45
2017-11-05T19:12:00.798Z,101134.92
2017-11-05T19:14:27.165Z,101135.82
2017-11-05T19:16:53.431Z,101134.92
2017-11-05T19:19:19.723Z,101140.19
2017-11-05T19:21:46.155Z,101130.14
2017-11-05T19:24:12.652Z,101135.84
2017-11-05T19:26:38.919Z,101139.82
2017-11-05T19:29:05.318Z,101139.39
2017-11-05T19:31:31.597Z,101147.66
2017-11-05T19:33:57.910Z,101150.26
2017-11-05T19:36:24.307Z,101143.22
2017-11-05T19:38:50.573Z,101147.64
2017-11-05T19:41:16.929Z,101160.38
2017-11-05T19:43:43.778Z,101155.59
2017-11-05T19:46:10.063Z,101169.58
2017-11-05T19:48:36.343Z,101172.59
2017-11-05T19:51:03.025Z,101173.88
2017-11-05T19:53:29.284Z,101180.87
2017-11-05T19:55:55.534Z,101187.42
2017-11-05T19:58:21.933Z,101180.48
2017-11-05T20:00:48.208Z,101189.67
2017-11-05T20:03:14.475Z,101189.23
2017-11-05T20:05:40.932Z,101193.19
2017-11-05T20:08:07.211Z,101199.31
2017-11-05T20:10:33.448Z,101205.88
2017-11-05T20:12:59.776Z,101209.81
2017-11-05T20:15:26.053Z,101213.75
2017-11-05T20:17:52.662Z,101217.68
2017-11-05T20:20:19.297Z,101216.41
2017-11-05T20:22:45.567Z,101224.27
2017-11-05T20:25:11.852Z,101238.70
2017-11-05T20:27:38.498Z,101236.97
2017-11-05T20:30:04.738Z,101240.11
2017-11-05T20:32:31.014Z,101235.34
2017-11-05T20:34:57.413Z,101235.78
2017-11-05T20:37:23.662Z,101248.80
2017-11-05T20:39:49.933Z,101252.73
2017-11-05T20:42:16.272Z,101252.77
2017-11-05T20:44:42.567Z,101262.81
2017-11-05T20:47:08.844Z,101267.25
2017-11-05T20:49:35.494Z,101265.05
2017-11-05T20:52:01.729Z,101266.73
2017-11-05T20:54:28.013Z,101277.16
2017-11-05T20:56:54.574Z,101281.97
2017-11-05T20:59:20.826Z,101278.00
2017-11-05T21:01:47.100Z,101283.69
2017-11-05T21:04:13.433Z,101275.81
2017-11-05T21:06:39.682Z,101282.38
2017-11-05T21:09:05.946Z,101282.39
2017-11-05T21:11:32.307Z,101286.35
2017-11-05T21:13:58.654Z,101286.77
2017-11-05T21:16:24.930Z,101287.23
2017-11-05T21:18:51.328Z,101292.03
2017-11-05T21:21:17.561Z,101287.23
2017-11-05T21:23:43.811Z,101288.10
2017-11-05T21:26:10.177Z,101292.45
2017-11-05T21:28:36.445Z,101291.16
2017-11-05T21:31:03.064Z,101292.47
2017-11-05T21:33:29.797Z,101288.09
2017-11-05T21:35:56.064Z,101286.33
2017-11-05T21:38:22.365Z,101289.85
2017-11-05T21:40:48.680Z,101298.20
2017-11-05T21:43:14.960Z,101299.95
2017-11-05T21:45:41.227Z,101292.94
2017-11-05T21:48:07.529Z,101301.28
2017-11-05T21:50:33.814Z,101295.16
2017-11-05T21:53:00.086Z,101299.58
2017-11-05T21:55:26.485Z,101303.52
2017-11-05T21:57:52.757Z,101299.17
2017-11-05T22:00:19.300Z,101303.16
2017-11-05T22:02:45.969Z,101317.98
2017-11-05T22:05:12.238Z,101314.91
2017-11-05T22:07:38.528Z,101314.98
2017-11-05T22:10:05.427Z,101318.49
2017-11-05T22:12:31.705Z,101317.59
2017-11-05T22:14:57.983Z,101325.42
2017-11-05T22:17:24.393Z,101330.22
2017-11-05T22:19:50.675Z,101331.08
2017-11-05T22:22:16.951Z,101326.24
2017-11-05T22:24:43.688Z,101329.31
2017-11-05T22:27:09.897Z,101338.02
2017-11-05T22:29:36.083Z,101332.37
2017-11-05T22:32:02.821Z,101334.11
2017-11-05T22:34:29.013Z,101341.95
2017-11-05T22:36:55.197Z,101338.03
2017-11-05T22:39:21.427Z,101336.31
2017-11-05T22:41:47.867Z,101345.05
2017-11-05T22:44:14.074Z,101346.34
2017-11-05T22:46:40.400Z,101350.70
2017-11-05T22:49:06.594Z,101351.13
2017-11-05T22:51:32.778Z,101354.20
2017-11-05T22:53:59.392Z,101358.54
2017-11-05T22:56:25.810Z,101360.73
2017-11-05T22:58:52.003Z,101363.81
2017-11-05T23:01:18.337Z,101360.31
2017-11-05T23:03:44.531Z,101367.75
2017-11-05T23:06:10.730Z,101368.66
2017-11-05T23:08:37.337Z,101372.61
2017-11-05T23:11:03.536Z,101373.06
2017-11-05T23:13:30.129Z,101371.82
2017-11-05T23:15:57.107Z,101372.27
2017-11-05T23:18:23.288Z,101380.14
2017-11-05T23:20:49.489Z,101380.55
2017-11-05T23:23:15.801Z,101381.88
2017-11-05T23:25:41.998Z,101386.70
2017-11-05T23:28:08.202Z,101392.40
2017-11-05T23:30:34.504Z,101398.96
2017-11-05T23:33:00.886Z,101395.53
2017-11-05T23:35:27.099Z,101398.09
2017-11-05T23:37:53.321Z,101393.70
2017-11-05T23:40:19.513Z,101393.23
2017-11-05T23:42:45.714Z,101392.78
2017-11-05T23:45:11.926Z,101398.94
2017-11-05T23:47:38.665Z,101404.61
2017-11-05T23:50:04.863Z,101408.12
2017-11-05T23:52:31.045Z,101409.04
2017-11-05T23:54:57.833Z,101410.36
2017-11-05T23:57:24.106Z,101416.89
2017-11-05T23:59:50.322Z,101411.62
